Terminal Aerodrome Forecast
Issued by NWS

Home | Current Version | Previous Version | Text Only | Print | Product List | Glossary On
Versions: 1 2 3 4 5 6 7 8 9 10 11 12 13 14 15 16 17 18 19 20 21 22 23 24
000
FTUS46 KSTO 251500 AAA
TAFMHR
TAF AMD
KMHR 251518Z 2515/2612 VRB03KT 1/4SM FG OVC002
      TEMPO 2517/2519 1SM BR OVC005
     FM252100 VRB02KT 3SM BR BKN007
     FM252200 VRB03KT 4SM HZ SKC
     FM260600 VRB03KT 2SM BR SKC=

USA.gov is the U.S. government's official web portal to all federal, state and local government web resources and services.